sensor_id;sensor_type;location;lat;lon;timestamp;pressure;altitude;pressure_sealevel;temperature;humidity
16777;BME280;8505;49.456;8.164;2023-01-29T00:01:32;101057.31;;;0.81;67.08
16777;BME280;8505;49.456;8.164;2023-01-29T00:03:59;101058.53;;;0.57;67.60
16777;BME280;8505;49.456;8.164;2023-01-29T00:06:27;101065.31;;;0.61;67.01
16777;BME280;8505;49.456;8.164;2023-01-29T00:08:56;101062.84;;;0.58;67.85
16777;BME280;8505;49.456;8.164;2023-01-29T00:11:24;101065.59;;;1.07;66.14
16777;BME280;8505;49.456;8.164;2023-01-29T00:13:52;101059.41;;;0.92;67.09
16777;BME280;8505;49.456;8.164;2023-01-29T00:16:20;101054.81;;;0.80;67.45
16777;BME280;8505;49.456;8.164;2023-01-29T00:18:47;101047.50;;;1.04;67.17
16777;BME280;8505;49.456;8.164;2023-01-29T00:21:17;101052.41;;;0.93;66.63
16777;BME280;8505;49.456;8.164;2023-01-29T00:23:45;101047.84;;;1.31;66.16
16777;BME280;8505;49.456;8.164;2023-01-29T00:26:14;101041.81;;;1.13;66.45
16777;BME280;8505;49.456;8.164;2023-01-29T00:28:42;101036.59;;;1.46;65.78
16777;BME280;8505;49.456;8.164;2023-01-29T00:31:12;101043.00;;;1.40;64.95
16777;BME280;8505;49.456;8.164;2023-01-29T00:33:40;101050.72;;;1.09;65.68
16777;BME280;8505;49.456;8.164;2023-01-29T00:36:10;101048.28;;;1.39;65.44
16777;BME280;8505;49.456;8.164;2023-01-29T00:38:38;101050.69;;;1.26;64.60
16777;BME280;8505;49.456;8.164;2023-01-29T00:41:06;101050.63;;;1.43;65.26
16777;BME280;8505;49.456;8.164;2023-01-29T00:43:53;101046.59;;;1.05;65.85
16777;BME280;8505;49.456;8.164;2023-01-29T00:46:35;101047.50;;;1.04;65.36
16777;BME280;8505;49.456;8.164;2023-01-29T00:49:03;101056.50;;;1.31;65.34
16777;BME280;8505;49.456;8.164;2023-01-29T00:51:31;101061.41;;;1.04;66.24
16777;BME280;8505;49.456;8.164;2023-01-29T00:53:58;101058.25;;;0.98;66.28
16777;BME280;8505;49.456;8.164;2023-01-29T00:56:28;101059.94;;;0.99;65.89
16777;BME280;8505;49.456;8.164;2023-01-29T00:58:57;101059.63;;;0.70;66.99
16777;BME280;8505;49.456;8.164;2023-01-29T01:01:25;101069.38;;;1.01;67.21
16777;BME280;8505;49.456;8.164;2023-01-29T01:04:08;101079.41;;;0.57;67.88
16777;BME280;8505;49.456;8.164;2023-01-29T01:06:36;101072.28;;;0.61;67.61
16777;BME280;8505;49.456;8.164;2023-01-29T01:09:04;101068.81;;;0.95;66.37
16777;BME280;8505;49.456;8.164;2023-01-29T01:11:49;101060.34;;;0.74;66.69
16777;BME280;8505;49.456;8.164;2023-01-29T01:14:19;101068.34;;;0.87;66.30
16777;BME280;8505;49.456;8.164;2023-01-29T01:16:47;101069.38;;;0.67;66.62
16777;BME280;8505;49.456;8.164;2023-01-29T01:19:15;101067.56;;;0.50;67.70
16777;BME280;8505;49.456;8.164;2023-01-29T01:21:43;101071.19;;;0.48;67.76
16777;BME280;8505;49.456;8.164;2023-01-29T01:24:13;101069.94;;;0.37;68.58
16777;BME280;8505;49.456;8.164;2023-01-29T01:26:41;101076.44;;;0.29;69.07
16777;BME280;8505;49.456;8.164;2023-01-29T01:29:09;101075.44;;;0.67;68.55
16777;BME280;8505;49.456;8.164;2023-01-29T01:31:38;101064.41;;;0.79;67.97
16777;BME280;8505;49.456;8.164;2023-01-29T01:34:05;101066.13;;;0.62;68.28
16777;BME280;8505;49.456;8.164;2023-01-29T01:36:33;101069.97;;;0.55;68.86
16777;BME280;8505;49.456;8.164;2023-01-29T01:39:01;101060.00;;;0.63;68.25
16777;BME280;8505;49.456;8.164;2023-01-29T01:41:29;101055.50;;;0.84;67.67
16777;BME280;8505;49.456;8.164;2023-01-29T01:43:58;101062.09;;;0.91;67.75
16777;BME280;8505;49.456;8.164;2023-01-29T01:46:28;101059.19;;;0.79;67.33
16777;BME280;8505;49.456;8.164;2023-01-29T01:49:00;101061.38;;;0.53;67.96
16777;BME280;8505;49.456;8.164;2023-01-29T01:51:31;101062.41;;;0.85;67.88
16777;BME280;8505;49.456;8.164;2023-01-29T01:54:02;101062.41;;;0.67;67.61
16777;BME280;8505;49.456;8.164;2023-01-29T01:56:34;101060.84;;;0.46;68.29
16777;BME280;8505;49.456;8.164;2023-01-29T01:59:09;101056.78;;;0.40;68.40
16777;BME280;8505;49.456;8.164;2023-01-29T02:01:38;101051.03;;;0.68;67.89
16777;BME280;8505;49.456;8.164;2023-01-29T02:04:13;101049.47;;;0.30;68.06
16777;BME280;8505;49.456;8.164;2023-01-29T02:07:02;101050.59;;;0.77;67.19
16777;BME280;8505;49.456;8.164;2023-01-29T02:09:50;101050.66;;;0.76;67.39
16777;BME280;8505;49.456;8.164;2023-01-29T02:12:20;101047.88;;;0.45;67.35
16777;BME280;8505;49.456;8.164;2023-01-29T02:14:50;101041.44;;;0.69;67.67
16777;BME280;8505;49.456;8.164;2023-01-29T02:17:18;101042.47;;;0.49;67.80
16777;BME280;8505;49.456;8.164;2023-01-29T02:19:54;101033.81;;;0.66;67.47
16777;BME280;8505;49.456;8.164;2023-01-29T02:22:45;101040.41;;;0.73;67.39
16777;BME280;8505;49.456;8.164;2023-01-29T02:25:38;101037.25;;;0.84;67.39
16777;BME280;8505;49.456;8.164;2023-01-29T02:28:26;101035.03;;;0.76;67.44
16777;BME280;8505;49.456;8.164;2023-01-29T02:31:01;101035.88;;;0.76;67.30
16777;BME280;8505;49.456;8.164;2023-01-29T02:33:43;101031.25;;;0.81;66.71
16777;BME280;8505;49.456;8.164;2023-01-29T02:36:26;101026.22;;;0.78;65.56
16777;BME280;8505;49.456;8.164;2023-01-29T02:38:58;101022.66;;;0.97;65.63
16777;BME280;8505;49.456;8.164;2023-01-29T02:41:31;101016.25;;;0.69;65.57
16777;BME280;8505;49.456;8.164;2023-01-29T02:44:07;101007.03;;;0.45;66.22
16777;BME280;8505;49.456;8.164;2023-01-29T02:46:44;101014.72;;;0.65;66.24
16777;BME280;8505;49.456;8.164;2023-01-29T02:49:22;101008.66;;;0.48;66.27
16777;BME280;8505;49.456;8.164;2023-01-29T02:51:57;101011.75;;;0.20;66.74
16777;BME280;8505;49.456;8.164;2023-01-29T02:54:31;101006.56;;;0.20;67.57
16777;BME280;8505;49.456;8.164;2023-01-29T02:57:04;101006.72;;;0.34;67.96
16777;BME280;8505;49.456;8.164;2023-01-29T02:59:39;101010.00;;;0.37;67.67
16777;BME280;8505;49.456;8.164;2023-01-29T03:02:10;101011.50;;;0.60;66.40
16777;BME280;8505;49.456;8.164;2023-01-29T03:04:49;101005.44;;;0.60;67.20
16777;BME280;8505;49.456;8.164;2023-01-29T03:07:23;101003.03;;;0.90;66.07
16777;BME280;8505;49.456;8.164;2023-01-29T03:10:12;101007.47;;;1.05;65.76
16777;BME280;8505;49.456;8.164;2023-01-29T03:12:46;101013.19;;;1.11;65.39
16777;BME280;8505;49.456;8.164;2023-01-29T03:15:21;101008.91;;;1.10;64.60
16777;BME280;8505;49.456;8.164;2023-01-29T03:17:54;101012.88;;;0.85;65.55
16777;BME280;8505;49.456;8.164;2023-01-29T03:20:26;101022.06;;;0.74;65.99
16777;BME280;8505;49.456;8.164;2023-01-29T03:23:01;101024.84;;;0.71;65.69
16777;BME280;8505;49.456;8.164;2023-01-29T03:25:32;101025.13;;;0.82;66.05
16777;BME280;8505;49.456;8.164;2023-01-29T03:28:20;101035.63;;;0.64;66.56
16777;BME280;8505;49.456;8.164;2023-01-29T03:31:09;101037.75;;;0.38;67.82
16777;BME280;8505;49.456;8.164;2023-01-29T03:33:59;101035.56;;;0.48;67.27
16777;BME280;8505;49.456;8.164;2023-01-29T03:36:33;101043.88;;;0.37;67.34
16777;BME280;8505;49.456;8.164;2023-01-29T03:39:05;101047.50;;;0.35;67.84
16777;BME280;8505;49.456;8.164;2023-01-29T03:41:36;101046.69;;;0.16;68.39
16777;BME280;8505;49.456;8.164;2023-01-29T03:44:12;101040.53;;;0.35;67.86
16777;BME280;8505;49.456;8.164;2023-01-29T03:46:47;101041.09;;;-0.13;69.70
16777;BME280;8505;49.456;8.164;2023-01-29T03:49:21;101037.38;;;0.29;69.12
16777;BME280;8505;49.456;8.164;2023-01-29T03:51:55;101038.16;;;0.65;67.18
16777;BME280;8505;49.456;8.164;2023-01-29T03:54:28;101032.91;;;0.31;66.90
16777;BME280;8505;49.456;8.164;2023-01-29T03:57:03;101048.69;;;-0.08;69.09
16777;BME280;8505;49.456;8.164;2023-01-29T03:59:39;101049.59;;;0.10;68.66
16777;BME280;8505;49.456;8.164;2023-01-29T04:02:12;101060.19;;;0.24;68.27
16777;BME280;8505;49.456;8.164;2023-01-29T04:04:47;101062.44;;;0.13;68.75
16777;BME280;8505;49.456;8.164;2023-01-29T04:07:20;101066.13;;;0.45;68.46
16777;BME280;8505;49.456;8.164;2023-01-29T04:09:53;101069.53;;;0.28;68.62
16777;BME280;8505;49.456;8.164;2023-01-29T04:12:27;101067.13;;;0.42;68.92
16777;BME280;8505;49.456;8.164;2023-01-29T04:14:57;101064.34;;;0.45;67.99
16777;BME280;8505;49.456;8.164;2023-01-29T04:17:33;101051.41;;;0.08;68.06
16777;BME280;8505;49.456;8.164;2023-01-29T04:20:04;101049.06;;;0.73;66.66
16777;BME280;8505;49.456;8.164;2023-01-29T04:22:34;101050.66;;;0.59;66.44
16777;BME280;8505;49.456;8.164;2023-01-29T04:25:03;101043.81;;;0.56;67.16
16777;BME280;8505;49.456;8.164;2023-01-29T04:27:39;101039.13;;;0.28;66.99
16777;BME280;8505;49.456;8.164;2023-01-29T04:30:20;101037.09;;;0.69;67.23
16777;BME280;8505;49.456;8.164;2023-01-29T04:33:00;101038.38;;;0.44;66.60
16777;BME280;8505;49.456;8.164;2023-01-29T04:35:33;101046.47;;;0.37;67.23
16777;BME280;8505;49.456;8.164;2023-01-29T04:38:10;101053.47;;;-0.18;69.83
16777;BME280;8505;49.456;8.164;2023-01-29T04:40:48;101047.63;;;0.32;67.91
16777;BME280;8505;49.456;8.164;2023-01-29T04:43:22;101049.09;;;0.37;68.51
16777;BME280;8505;49.456;8.164;2023-01-29T04:46:03;101034.84;;;0.27;67.96
16777;BME280;8505;49.456;8.164;2023-01-29T04:48:45;101020.72;;;0.31;67.65
16777;BME280;8505;49.456;8.164;2023-01-29T04:51:21;101004.00;;;0.54;66.50
16777;BME280;8505;49.456;8.164;2023-01-29T04:53:56;100994.63;;;0.50;65.73
16777;BME280;8505;49.456;8.164;2023-01-29T04:56:30;100991.88;;;0.53;66.58
16777;BME280;8505;49.456;8.164;2023-01-29T04:59:05;101008.13;;;0.58;65.36
16777;BME280;8505;49.456;8.164;2023-01-29T05:01:34;101016.09;;;0.72;66.24
16777;BME280;8505;49.456;8.164;2023-01-29T05:04:08;101011.13;;;0.68;65.57
16777;BME280;8505;49.456;8.164;2023-01-29T05:06:38;101001.50;;;0.68;65.68
16777;BME280;8505;49.456;8.164;2023-01-29T05:09:07;100997.75;;;0.57;66.95
16777;BME280;8505;49.456;8.164;2023-01-29T05:11:35;101002.31;;;0.36;66.14
16777;BME280;8505;49.456;8.164;2023-01-29T05:14:05;101005.31;;;0.10;66.36
16777;BME280;8505;49.456;8.164;2023-01-29T05:16:39;101019.06;;;-0.43;69.40
16777;BME280;8505;49.456;8.164;2023-01-29T05:19:11;101020.56;;;-0.19;68.94
16777;BME280;8505;49.456;8.164;2023-01-29T05:21:41;101019.16;;;0.46;67.48
16777;BME280;8505;49.456;8.164;2023-01-29T05:24:11;101026.06;;;0.47;66.77
16777;BME280;8505;49.456;8.164;2023-01-29T05:26:41;101023.56;;;0.27;67.33
16777;BME280;8505;49.456;8.164;2023-01-29T05:29:27;101033.06;;;-0.08;69.02
16777;BME280;8505;49.456;8.164;2023-01-29T05:31:55;101037.84;;;-0.18;68.94
16777;BME280;8505;49.456;8.164;2023-01-29T05:34:24;101039.66;;;0.18;68.00
16777;BME280;8505;49.456;8.164;2023-01-29T05:36:52;101037.66;;;-0.13;68.97
16777;BME280;8505;49.456;8.164;2023-01-29T05:39:20;101031.34;;;0.46;67.53
16777;BME280;8505;49.456;8.164;2023-01-29T05:41:47;101033.41;;;0.56;67.14
16777;BME280;8505;49.456;8.164;2023-01-29T05:44:15;101036.91;;;0.38;67.35
16777;BME280;8505;49.456;8.164;2023-01-29T05:46:43;101039.16;;;0.46;67.43
16777;BME280;8505;49.456;8.164;2023-01-29T05:49:11;101035.69;;;0.45;67.45
16777;BME280;8505;49.456;8.164;2023-01-29T05:51:40;101027.44;;;0.37;66.71
16777;BME280;8505;49.456;8.164;2023-01-29T05:54:10;101028.81;;;0.08;66.91
16777;BME280;8505;49.456;8.164;2023-01-29T05:56:37;101031.94;;;-0.03;68.56
16777;BME280;8505;49.456;8.164;2023-01-29T05:59:05;101022.75;;;0.08;68.53
16777;BME280;8505;49.456;8.164;2023-01-29T06:01:33;101019.38;;;0.24;68.41
16777;BME280;8505;49.456;8.164;2023-01-29T06:04:01;101017.31;;;0.48;66.79
16777;BME280;8505;49.456;8.164;2023-01-29T06:06:29;101011.09;;;0.51;67.28
16777;BME280;8505;49.456;8.164;2023-01-29T06:08:58;101009.94;;;0.39;66.60
16777;BME280;8505;49.456;8.164;2023-01-29T06:11:26;101020.06;;;0.45;65.98
16777;BME280;8505;49.456;8.164;2023-01-29T06:13:53;101013.16;;;0.27;66.67
16777;BME280;8505;49.456;8.164;2023-01-29T06:16:21;101031.19;;;0.13;67.08
16777;BME280;8505;49.456;8.164;2023-01-29T06:18:49;101031.75;;;0.19;67.35
16777;BME280;8505;49.456;8.164;2023-01-29T06:21:16;101038.03;;;0.15;67.42
16777;BME280;8505;49.456;8.164;2023-01-29T06:23:45;101047.09;;;0.07;67.42
16777;BME280;8505;49.456;8.164;2023-01-29T06:26:14;101044.28;;;0.30;67.39
16777;BME280;8505;49.456;8.164;2023-01-29T06:28:42;101030.78;;;0.22;67.53
16777;BME280;8505;49.456;8.164;2023-01-29T06:31:11;101028.16;;;0.22;66.98
16777;BME280;8505;49.456;8.164;2023-01-29T06:33:58;101025.31;;;-0.10;67.36
16777;BME280;8505;49.456;8.164;2023-01-29T06:36:26;101026.56;;;0.00;67.12
16777;BME280;8505;49.456;8.164;2023-01-29T06:38:54;101028.28;;;0.19;67.05
16777;BME280;8505;49.456;8.164;2023-01-29T06:41:23;101024.63;;;0.06;67.10
16777;BME280;8505;49.456;8.164;2023-01-29T06:43:51;101027.69;;;0.14;67.02
16777;BME280;8505;49.456;8.164;2023-01-29T06:46:19;101021.06;;;0.07;66.75
16777;BME280;8505;49.456;8.164;2023-01-29T06:48:47;101018.28;;;0.11;66.88
16777;BME280;8505;49.456;8.164;2023-01-29T06:51:14;101016.47;;;0.30;66.52
16777;BME280;8505;49.456;8.164;2023-01-29T06:53:42;101014.00;;;0.27;66.47
16777;BME280;8505;49.456;8.164;2023-01-29T06:56:12;101018.34;;;0.10;67.65
16777;BME280;8505;49.456;8.164;2023-01-29T06:58:41;101032.16;;;-0.45;68.70
16777;BME280;8505;49.456;8.164;2023-01-29T07:01:11;101029.38;;;0.15;67.56
16777;BME280;8505;49.456;8.164;2023-01-29T07:03:58;101014.00;;;0.27;67.24
16777;BME280;8505;49.456;8.164;2023-01-29T07:06:27;101026.72;;;-0.03;67.70
16777;BME280;8505;49.456;8.164;2023-01-29T07:08:54;101033.91;;;-0.08;68.17
16777;BME280;8505;49.456;8.164;2023-01-29T07:11:22;101036.44;;;-0.06;68.28
16777;BME280;8505;49.456;8.164;2023-01-29T07:13:51;101035.69;;;-0.08;68.70
16777;BME280;8505;49.456;8.164;2023-01-29T07:16:19;101036.84;;;0.04;68.40
16777;BME280;8505;49.456;8.164;2023-01-29T07:18:46;101035.59;;;0.12;67.90
16777;BME280;8505;49.456;8.164;2023-01-29T07:21:14;101032.88;;;0.14;67.54
16777;BME280;8505;49.456;8.164;2023-01-29T07:23:42;101037.50;;;0.26;67.51
16777;BME280;8505;49.456;8.164;2023-01-29T07:26:10;101034.06;;;-0.48;69.12
16777;BME280;8505;49.456;8.164;2023-01-29T07:28:38;101030.88;;;0.02;68.62
16777;BME280;8505;49.456;8.164;2023-01-29T07:31:11;101027.44;;;0.37;66.91
16777;BME280;8505;49.456;8.164;2023-01-29T07:33:39;101028.34;;;0.36;66.93
16777;BME280;8505;49.456;8.164;2023-01-29T07:36:09;101038.13;;;0.31;66.80
16777;BME280;8505;49.456;8.164;2023-01-29T07:38:37;101029.25;;;0.35;67.09
16777;BME280;8505;49.456;8.164;2023-01-29T07:41:05;101038.25;;;0.11;67.64
16777;BME280;8505;49.456;8.164;2023-01-29T07:43:33;101036.72;;;-0.12;68.54
16777;BME280;8505;49.456;8.164;2023-01-29T07:46:01;101040.38;;;0.03;68.58
16777;BME280;8505;49.456;8.164;2023-01-29T07:48:31;101045.63;;;0.20;68.06
16777;BME280;8505;49.456;8.164;2023-01-29T07:50:58;101051.34;;;0.09;68.24
16777;BME280;8505;49.456;8.164;2023-01-29T07:53:27;101058.03;;;-0.04;67.49
16777;BME280;8505;49.456;8.164;2023-01-29T07:55:55;101053.88;;;0.11;67.81
16777;BME280;8505;49.456;8.164;2023-01-29T07:58:23;101060.22;;;0.05;68.44
16777;BME280;8505;49.456;8.164;2023-01-29T08:00:50;101069.66;;;-0.11;68.31
16777;BME280;8505;49.456;8.164;2023-01-29T08:03:19;101059.53;;;0.19;68.26
16777;BME280;8505;49.456;8.164;2023-01-29T08:05:48;101059.59;;;0.36;67.65
16777;BME280;8505;49.456;8.164;2023-01-29T08:08:16;101065.16;;;0.11;68.63
16777;BME280;8505;49.456;8.164;2023-01-29T08:10:44;101067.56;;;0.50;68.21
16777;BME280;8505;49.456;8.164;2023-01-29T08:13:12;101068.00;;;0.60;67.12
16777;BME280;8505;49.456;8.164;2023-01-29T08:15:41;101072.28;;;0.61;66.73
16777;BME280;8505;49.456;8.164;2023-01-29T08:18:09;101064.66;;;0.39;66.35
16777;BME280;8505;49.456;8.164;2023-01-29T08:20:37;101069.31;;;0.32;66.08
16777;BME280;8505;49.456;8.164;2023-01-29T08:23:07;101066.69;;;0.15;67.04
16777;BME280;8505;49.456;8.164;2023-01-29T08:25:36;101084.44;;;0.43;66.58
16777;BME280;8505;49.456;8.164;2023-01-29T08:28:04;101080.75;;;0.30;66.44
16777;BME280;8505;49.456;8.164;2023-01-29T08:30:33;101073.69;;;0.32;66.95
16777;BME280;8505;49.456;8.164;2023-01-29T08:33:03;101069.25;;;0.34;66.29
16777;BME280;8505;49.456;8.164;2023-01-29T08:35:30;101062.59;;;0.46;66.34
16777;BME280;8505;49.456;8.164;2023-01-29T08:37:59;101062.53;;;0.47;66.31
16777;BME280;8505;49.456;8.164;2023-01-29T08:40:32;101066.91;;;0.47;66.35
16777;BME280;8505;49.456;8.164;2023-01-29T08:43:00;101073.13;;;0.61;65.59
16777;BME280;8505;49.456;8.164;2023-01-29T08:45:32;101078.78;;;0.87;65.51
16777;BME280;8505;49.456;8.164;2023-01-29T08:48:01;101080.69;;;0.49;65.33
16777;BME280;8505;49.456;8.164;2023-01-29T08:50:28;101096.44;;;0.28;65.83
16777;BME280;8505;49.456;8.164;2023-01-29T08:52:57;101101.94;;;0.22;66.09
16777;BME280;8505;49.456;8.164;2023-01-29T08:55:26;101094.78;;;0.45;65.86
16777;BME280;8505;49.456;8.164;2023-01-29T08:57:55;101089.69;;;0.60;65.23
16777;BME280;8505;49.456;8.164;2023-01-29T09:00:23;101074.81;;;0.26;66.15
16777;BME280;8505;49.456;8.164;2023-01-29T09:02:51;101055.88;;;0.06;66.56
16777;BME280;8505;49.456;8.164;2023-01-29T09:05:19;101044.47;;;0.25;66.68
16777;BME280;8505;49.456;8.164;2023-01-29T09:07:46;101018.63;;;0.57;65.61
16777;BME280;8505;49.456;8.164;2023-01-29T09:10:14;101012.56;;;0.56;65.35
16777;BME280;8505;49.456;8.164;2023-01-29T09:12:42;101008.50;;;0.85;65.95
16777;BME280;8505;49.456;8.164;2023-01-29T09:15:11;101009.78;;;0.94;66.01
16777;BME280;8505;49.456;8.164;2023-01-29T09:17:39;101014.88;;;0.79;63.94
16777;BME280;8505;49.456;8.164;2023-01-29T09:20:09;101018.59;;;1.08;64.03
16777;BME280;8505;49.456;8.164;2023-01-29T09:22:37;101015.75;;;0.96;64.56
16777;BME280;8505;49.456;8.164;2023-01-29T09:25:05;101023.28;;;1.02;64.51
16777;BME280;8505;49.456;8.164;2023-01-29T09:27:33;101022.19;;;1.06;63.99
16777;BME280;8505;49.456;8.164;2023-01-29T09:30:02;101026.63;;;1.21;63.42
16777;BME280;8505;49.456;8.164;2023-01-29T09:32:32;101038.22;;;1.80;62.97
16777;BME280;8505;49.456;8.164;2023-01-29T09:35:20;101044.88;;;2.17;61.12
16777;BME280;8505;49.456;8.164;2023-01-29T09:37:47;101047.78;;;2.42;60.48
16777;BME280;8505;49.456;8.164;2023-01-29T09:40:22;101049.97;;;1.40;61.15
16777;BME280;8505;49.456;8.164;2023-01-29T09:42:55;101039.00;;;2.13;61.18
16777;BME280;8505;49.456;8.164;2023-01-29T09:45:25;101046.25;;;1.77;61.36
16777;BME280;8505;49.456;8.164;2023-01-29T09:47:58;101047.06;;;1.93;62.33
16777;BME280;8505;49.456;8.164;2023-01-29T09:50:30;101052.38;;;2.07;61.52
16777;BME280;8505;49.456;8.164;2023-01-29T09:53:02;101059.66;;;2.48;60.36
16777;BME280;8505;49.456;8.164;2023-01-29T09:55:36;101064.09;;;2.31;60.05
16777;BME280;8505;49.456;8.164;2023-01-29T09:58:12;101059.13;;;2.11;60.48
16777;BME280;8505;49.456;8.164;2023-01-29T10:00:47;101074.22;;;1.90;62.09
16777;BME280;8505;49.456;8.164;2023-01-29T10:03:35;101077.25;;;1.50;62.40
16777;BME280;8505;49.456;8.164;2023-01-29T10:06:18;101084.97;;;1.69;62.01
16777;BME280;8505;49.456;8.164;2023-01-29T10:09:15;101085.72;;;1.71;62.98
16777;BME280;8505;49.456;8.164;2023-01-29T10:12:00;101084.03;;;1.70;62.53
16777;BME280;8505;49.456;8.164;2023-01-29T10:14:38;101087.34;;;1.89;61.49
16777;BME280;8505;49.456;8.164;2023-01-29T10:17:22;101088.59;;;1.82;62.53
16777;BME280;8505;49.456;8.164;2023-01-29T10:20:12;101086.59;;;1.87;62.65
16777;BME280;8505;49.456;8.164;2023-01-29T10:22:57;101073.91;;;1.48;62.70
16777;BME280;8505;49.456;8.164;2023-01-29T10:25:32;101065.22;;;1.47;63.41
16777;BME280;8505;49.456;8.164;2023-01-29T10:28:14;101070.41;;;1.80;62.79
16777;BME280;8505;49.456;8.164;2023-01-29T10:30:47;101075.31;;;2.18;61.41
16777;BME280;8505;49.456;8.164;2023-01-29T10:33:18;101071.66;;;2.52;60.08
16777;BME280;8505;49.456;8.164;2023-01-29T10:35:52;101065.50;;;2.53;59.89
16777;BME280;8505;49.456;8.164;2023-01-29T10:38:29;101058.53;;;2.22;59.58
16777;BME280;8505;49.456;8.164;2023-01-29T10:41:05;101045.47;;;2.06;60.95
16777;BME280;8505;49.456;8.164;2023-01-29T10:43:44;101037.16;;;1.84;61.84
16777;BME280;8505;49.456;8.164;2023-01-29T10:46:22;101036.28;;;2.15;60.88
16777;BME280;8505;49.456;8.164;2023-01-29T10:49:00;101046.41;;;1.89;60.53
16777;BME280;8505;49.456;8.164;2023-01-29T10:51:46;101039.50;;;2.04;60.75
16777;BME280;8505;49.456;8.164;2023-01-29T10:54:37;101040.59;;;2.00;61.56
16777;BME280;8505;49.456;8.164;2023-01-29T10:57:15;101032.84;;;1.83;62.10
16777;BME280;8505;49.456;8.164;2023-01-29T10:59:56;101035.19;;;2.34;61.38
16777;BME280;8505;49.456;8.164;2023-01-29T11:02:26;101022.34;;;2.46;60.15
16777;BME280;8505;49.456;8.164;2023-01-29T11:04:54;101020.81;;;2.41;60.26
16777;BME280;8505;49.456;8.164;2023-01-29T11:07:23;101015.63;;;2.56;59.87
16777;BME280;8505;49.456;8.164;2023-01-29T11:09:56;100999.25;;;1.77;61.09
16777;BME280;8505;49.456;8.164;2023-01-29T11:12:28;100994.22;;;2.19;60.28
16777;BME280;8505;49.456;8.164;2023-01-29T11:15:02;100996.34;;;2.28;59.86
16777;BME280;8505;49.456;8.164;2023-01-29T11:17:31;100984.31;;;2.40;59.86
16777;BME280;8505;49.456;8.164;2023-01-29T11:19:59;100982.78;;;2.52;59.79
16777;BME280;8505;49.456;8.164;2023-01-29T11:22:29;100981.16;;;2.49;59.09
16777;BME280;8505;49.456;8.164;2023-01-29T11:25:08;100979.94;;;1.95;61.83
16777;BME280;8505;49.456;8.164;2023-01-29T11:27:41;100970.66;;;2.35;59.53
16777;BME280;8505;49.456;8.164;2023-01-29T11:30:15;100965.00;;;2.42;59.98
16777;BME280;8505;49.456;8.164;2023-01-29T11:32:49;100964.53;;;2.94;58.64
16777;BME280;8505;49.456;8.164;2023-01-29T11:35:22;100950.03;;;2.74;59.16
16777;BME280;8505;49.456;8.164;2023-01-29T11:38:05;100947.03;;;3.51;56.95
16777;BME280;8505;49.456;8.164;2023-01-29T11:40:36;100948.00;;;4.17;53.82
16777;BME280;8505;49.456;8.164;2023-01-29T11:43:19;100938.50;;;4.41;53.93
16777;BME280;8505;49.456;8.164;2023-01-29T11:45:49;100931.81;;;5.49;51.97
16777;BME280;8505;49.456;8.164;2023-01-29T11:48:19;100904.88;;;7.09;47.19
16777;BME280;8505;49.456;8.164;2023-01-29T11:50:51;100902.00;;;8.09;44.68
16777;BME280;8505;49.456;8.164;2023-01-29T11:53:25;100894.81;;;8.11;44.00
16777;BME280;8505;49.456;8.164;2023-01-29T11:55:59;100896.44;;;7.92;44.30
16777;BME280;8505;49.456;8.164;2023-01-29T11:58:29;100887.63;;;7.05;47.54
16777;BME280;8505;49.456;8.164;2023-01-29T12:00:57;100878.22;;;7.57;47.02
16777;BME280;8505;49.456;8.164;2023-01-29T12:03:32;100880.03;;;7.88;44.78
16777;BME280;8505;49.456;8.164;2023-01-29T12:06:04;100882.00;;;7.75;46.11
16777;BME280;8505;49.456;8.164;2023-01-29T12:08:36;100882.16;;;7.94;44.83
16777;BME280;8505;49.456;8.164;2023-01-29T12:11:07;100871.44;;;7.32;46.18
16777;BME280;8505;49.456;8.164;2023-01-29T12:13:35;100877.81;;;6.63;47.73
16777;BME280;8505;49.456;8.164;2023-01-29T12:16:12;100875.47;;;7.90;45.11
16777;BME280;8505;49.456;8.164;2023-01-29T12:18:45;100875.38;;;7.81;44.94
16777;BME280;8505;49.456;8.164;2023-01-29T12:21:20;100869.22;;;7.59;45.61
16777;BME280;8505;49.456;8.164;2023-01-29T12:23:55;100858.69;;;6.72;48.61
16777;BME280;8505;49.456;8.164;2023-01-29T12:26:28;100852.19;;;6.42;47.52
16777;BME280;8505;49.456;8.164;2023-01-29T12:29:11;100843.38;;;6.66;49.27
16777;BME280;8505;49.456;8.164;2023-01-29T12:31:45;100837.13;;;6.67;47.64
16777;BME280;8505;49.456;8.164;2023-01-29T12:34:19;100835.69;;;6.63;49.08
16777;BME280;8505;49.456;8.164;2023-01-29T12:36:54;100837.84;;;6.58;46.47
16777;BME280;8505;49.456;8.164;2023-01-29T12:39:24;100833.63;;;7.11;48.33
16777;BME280;8505;49.456;8.164;2023-01-29T12:41:55;100834.09;;;8.43;45.80
16777;BME280;8505;49.456;8.164;2023-01-29T12:44:29;100838.91;;;6.55;48.29
16777;BME280;8505;49.456;8.164;2023-01-29T12:47:04;100836.53;;;6.52;49.09
16777;BME280;8505;49.456;8.164;2023-01-29T12:49:36;100823.38;;;6.63;49.58
16777;BME280;8505;49.456;8.164;2023-01-29T12:52:09;100812.75;;;6.54;49.30
16777;BME280;8505;49.456;8.164;2023-01-29T12:54:42;100822.78;;;6.48;49.50
16777;BME280;8505;49.456;8.164;2023-01-29T12:57:17;100819.78;;;6.86;49.32
16777;BME280;8505;49.456;8.164;2023-01-29T12:59:51;100801.19;;;7.10;48.21
16777;BME280;8505;49.456;8.164;2023-01-29T13:02:29;100804.66;;;7.22;48.42
16777;BME280;8505;49.456;8.164;2023-01-29T13:05:00;100808.06;;;7.02;48.62
16777;BME280;8505;49.456;8.164;2023-01-29T13:07:32;100803.75;;;6.56;50.24
16777;BME280;8505;49.456;8.164;2023-01-29T13:10:09;100810.25;;;5.95;50.13
16777;BME280;8505;49.456;8.164;2023-01-29T13:12:44;100808.50;;;5.24;52.36
16777;BME280;8505;49.456;8.164;2023-01-29T13:15:21;100809.44;;;4.99;53.67
16777;BME280;8505;49.456;8.164;2023-01-29T13:17:53;100800.44;;;4.78;53.82
16777;BME280;8505;49.456;8.164;2023-01-29T13:20:25;100800.00;;;5.20;54.32
16777;BME280;8505;49.456;8.164;2023-01-29T13:22:58;100794.25;;;5.15;53.63
16777;BME280;8505;49.456;8.164;2023-01-29T13:25:30;100792.22;;;5.66;52.90
16777;BME280;8505;49.456;8.164;2023-01-29T13:27:58;100788.09;;;6.55;50.72
16777;BME280;8505;49.456;8.164;2023-01-29T13:30:28;100783.88;;;6.30;49.80
16777;BME280;8505;49.456;8.164;2023-01-29T13:32:58;100781.41;;;6.50;49.51
16777;BME280;8505;49.456;8.164;2023-01-29T13:35:39;100775.03;;;6.20;50.28
16777;BME280;8505;49.456;8.164;2023-01-29T13:38:22;100770.38;;;6.12;50.05